sensor_id;sensor_type;location;lat;lon;timestamp;pressure;altitude;pressure_sealevel;temperature;humidity
55217;BME280;41086;46.736;15.666;2024-03-02T00:00:22;97755.94;;;10.83;100.00
55217;BME280;41086;46.736;15.666;2024-03-02T00:02:51;97762.41;;;10.90;100.00
55217;BME280;41086;46.736;15.666;2024-03-02T00:05:19;97761.81;;;10.86;100.00
55217;BME280;41086;46.736;15.666;2024-03-02T00:07:54;97759.75;;;10.90;100.00
55217;BME280;41086;46.736;15.666;2024-03-02T00:10:25;97745.34;;;10.83;100.00
55217;BME280;41086;46.736;15.666;2024-03-02T00:12:56;97752.16;;;10.85;100.00
55217;BME280;41086;46.736;15.666;2024-03-02T00:15:39;97763.84;;;10.94;100.00
55217;BME280;41086;46.736;15.666;2024-03-02T00:18:12;97765.63;;;10.94;100.00
55217;BME280;41086;46.736;15.666;2024-03-02T00:20:40;97756.53;;;10.86;100.00
55217;BME280;41086;46.736;15.666;2024-03-02T00:23:09;97775.59;;;10.80;100.00
55217;BME280;41086;46.736;15.666;2024-03-02T00:28:04;97776.91;;;10.63;100.00
55217;BME280;41086;46.736;15.666;2024-03-02T00:31:07;97781.13;;;10.66;100.00
55217;BME280;41086;46.736;15.666;2024-03-02T00:33:36;97781.50;;;10.73;100.00
55217;BME280;41086;46.736;15.666;2024-03-02T00:36:04;97777.97;;;10.83;100.00
55217;BME280;41086;46.736;15.666;2024-03-02T00:38:32;97757.50;;;10.74;100.00
55217;BME280;41086;46.736;15.666;2024-03-02T00:41:06;97773.84;;;10.91;100.00
55217;BME280;41086;46.736;15.666;2024-03-02T00:46:17;97750.41;;;10.63;100.00
55217;BME280;41086;46.736;15.666;2024-03-02T00:51:20;97768.78;;;10.87;100.00
55217;BME280;41086;46.736;15.666;2024-03-02T00:53:49;97774.94;;;10.88;100.00
55217;BME280;41086;46.736;15.666;2024-03-02T00:56:16;97773.16;;;10.89;100.00
55217;BME280;41086;46.736;15.666;2024-03-02T00:58:43;97778.34;;;10.79;100.00
55217;BME280;41086;46.736;15.666;2024-03-02T01:01:10;97743.50;;;10.40;100.00
55217;BME280;41086;46.736;15.666;2024-03-02T01:03:37;97770.81;;;10.29;100.00
55217;BME280;41086;46.736;15.666;2024-03-02T01:06:04;97771.97;;;10.14;100.00
55217;BME280;41086;46.736;15.666;2024-03-02T01:08:31;97776.53;;;10.01;100.00
55217;BME280;41086;46.736;15.666;2024-03-02T01:10:58;97770.66;;;10.08;100.00
55217;BME280;41086;46.736;15.666;2024-03-02T01:13:25;97768.34;;;10.04;100.00
55217;BME280;41086;46.736;15.666;2024-03-02T01:15:52;97764.63;;;10.17;100.00
55217;BME280;41086;46.736;15.666;2024-03-02T01:18:19;97758.97;;;10.11;100.00
55217;BME280;41086;46.736;15.666;2024-03-02T01:20:46;97755.00;;;10.05;100.00
55217;BME280;41086;46.736;15.666;2024-03-02T01:23:13;97758.16;;;9.99;100.00
55217;BME280;41086;46.736;15.666;2024-03-02T01:25:40;97751.28;;;10.19;100.00
55217;BME280;41086;46.736;15.666;2024-03-02T01:28:07;97762.59;;;10.55;100.00
55217;BME280;41086;46.736;15.666;2024-03-02T01:30:35;97764.97;;;10.69;100.00
55217;BME280;41086;46.736;15.666;2024-03-02T01:33:02;97754.59;;;10.89;100.00
55217;BME280;41086;46.736;15.666;2024-03-02T01:35:29;97745.41;;;10.93;100.00
55217;BME280;41086;46.736;15.666;2024-03-02T01:37:56;97745.66;;;10.90;100.00
55217;BME280;41086;46.736;15.666;2024-03-02T01:40:23;97751.56;;;10.93;100.00
55217;BME280;41086;46.736;15.666;2024-03-02T01:42:53;97758.84;;;11.12;100.00
55217;BME280;41086;46.736;15.666;2024-03-02T01:45:26;97757.75;;;11.15;100.00
55217;BME280;41086;46.736;15.666;2024-03-02T01:47:53;97759.31;;;11.17;100.00
55217;BME280;41086;46.736;15.666;2024-03-02T01:50:31;97753.16;;;11.17;100.00
55217;BME280;41086;46.736;15.666;2024-03-02T01:52:59;97747.84;;;10.84;100.00
55217;BME280;41086;46.736;15.666;2024-03-02T01:55:26;97739.47;;;10.57;100.00
55217;BME280;41086;46.736;15.666;2024-03-02T01:57:56;97740.19;;;10.25;100.00
55217;BME280;41086;46.736;15.666;2024-03-02T02:00:23;97726.47;;;9.97;100.00
55217;BME280;41086;46.736;15.666;2024-03-02T02:02:54;97736.81;;;10.23;100.00
55217;BME280;41086;46.736;15.666;2024-03-02T02:05:21;97741.53;;;10.53;100.00
55217;BME280;41086;46.736;15.666;2024-03-02T02:07:48;97741.25;;;10.79;100.00
55217;BME280;41086;46.736;15.666;2024-03-02T02:10:15;97741.16;;;11.01;100.00
55217;BME280;41086;46.736;15.666;2024-03-02T02:12:42;97742.75;;;10.93;100.00
55217;BME280;41086;46.736;15.666;2024-03-02T02:15:30;97731.16;;;11.05;100.00
55217;BME280;41086;46.736;15.666;2024-03-02T02:17:58;97728.56;;;11.15;100.00
55217;BME280;41086;46.736;15.666;2024-03-02T02:20:26;97731.28;;;11.03;100.00
55217;BME280;41086;46.736;15.666;2024-03-02T02:22:56;97723.09;;;10.95;100.00
55217;BME280;41086;46.736;15.666;2024-03-02T02:25:24;97722.91;;;10.87;100.00
55217;BME280;41086;46.736;15.666;2024-03-02T02:27:50;97734.91;;;10.59;100.00
55217;BME280;41086;46.736;15.666;2024-03-02T02:30:35;97706.16;;;10.43;100.00
55217;BME280;41086;46.736;15.666;2024-03-02T02:33:02;97723.94;;;10.52;100.00
55217;BME280;41086;46.736;15.666;2024-03-02T02:35:29;97731.31;;;10.49;100.00
55217;BME280;41086;46.736;15.666;2024-03-02T02:37:56;97722.66;;;10.35;100.00
55217;BME280;41086;46.736;15.666;2024-03-02T02:40:24;97724.31;;;10.36;100.00
55217;BME280;41086;46.736;15.666;2024-03-02T02:42:51;97723.59;;;10.46;100.00
55217;BME280;41086;46.736;15.666;2024-03-02T02:45:19;97720.34;;;10.53;100.00
55217;BME280;41086;46.736;15.666;2024-03-02T02:47:46;97725.00;;;10.61;100.00
55217;BME280;41086;46.736;15.666;2024-03-02T02:50:13;97725.50;;;10.55;100.00
55217;BME280;41086;46.736;15.666;2024-03-02T02:52:41;97722.41;;;10.38;100.00
55217;BME280;41086;46.736;15.666;2024-03-02T02:55:12;97717.00;;;10.29;100.00
55217;BME280;41086;46.736;15.666;2024-03-02T02:57:41;97705.28;;;10.20;100.00
55217;BME280;41086;46.736;15.666;2024-03-02T03:00:13;97711.09;;;10.36;100.00
55217;BME280;41086;46.736;15.666;2024-03-02T03:02:45;97711.19;;;10.46;100.00
55217;BME280;41086;46.736;15.666;2024-03-02T03:05:13;97707.75;;;10.34;100.00
55217;BME280;41086;46.736;15.666;2024-03-02T03:07:41;97701.56;;;10.34;100.00
55217;BME280;41086;46.736;15.666;2024-03-02T03:10:08;97702.53;;;10.21;100.00
55217;BME280;41086;46.736;15.666;2024-03-02T03:12:35;97698.81;;;10.35;100.00
55217;BME280;41086;46.736;15.666;2024-03-02T03:15:03;97699.53;;;10.26;100.00
55217;BME280;41086;46.736;15.666;2024-03-02T03:17:35;97703.38;;;10.22;100.00
55217;BME280;41086;46.736;15.666;2024-03-02T03:20:04;97711.22;;;10.35;100.00
55217;BME280;41086;46.736;15.666;2024-03-02T03:22:32;97707.75;;;10.34;100.00
55217;BME280;41086;46.736;15.666;2024-03-02T03:24:59;97710.22;;;10.25;100.00
55217;BME280;41086;46.736;15.666;2024-03-02T03:27:27;97710.34;;;10.12;100.00
55217;BME280;41086;46.736;15.666;2024-03-02T03:29:53;97711.31;;;10.11;100.00
55217;BME280;41086;46.736;15.666;2024-03-02T03:32:21;97709.03;;;9.95;100.00
55217;BME280;41086;46.736;15.666;2024-03-02T03:34:48;97707.59;;;10.02;100.00
55217;BME280;41086;46.736;15.666;2024-03-02T03:37:15;97707.47;;;10.15;100.00
55217;BME280;41086;46.736;15.666;2024-03-02T03:39:42;97704.81;;;10.15;100.00
55217;BME280;41086;46.736;15.666;2024-03-02T03:42:09;97704.00;;;10.37;100.00
55217;BME280;41086;46.736;15.666;2024-03-02T03:44:36;97710.63;;;10.75;100.00
55217;BME280;41086;46.736;15.666;2024-03-02T03:47:03;97718.06;;;10.92;100.00
55217;BME280;41086;46.736;15.666;2024-03-02T03:49:29;97718.38;;;10.78;100.00
55217;BME280;41086;46.736;15.666;2024-03-02T03:51:56;97716.84;;;10.41;100.00
55217;BME280;41086;46.736;15.666;2024-03-02T03:54:23;97720.00;;;10.35;100.00
55217;BME280;41086;46.736;15.666;2024-03-02T03:56:50;97727.09;;;10.24;100.00
55217;BME280;41086;46.736;15.666;2024-03-02T03:59:17;97724.31;;;10.03;100.00
55217;BME280;41086;46.736;15.666;2024-03-02T04:01:43;97699.53;;;9.92;100.00
55217;BME280;41086;46.736;15.666;2024-03-02T04:04:10;97717.34;;;10.02;100.00
55217;BME280;41086;46.736;15.666;2024-03-02T04:06:37;97721.06;;;9.88;100.00
55217;BME280;41086;46.736;15.666;2024-03-02T04:09:04;97718.28;;;9.78;100.00
55217;BME280;41086;46.736;15.666;2024-03-02T04:11:31;97729.13;;;10.09;100.00
55217;BME280;41086;46.736;15.666;2024-03-02T04:13:58;97729.72;;;10.12;100.00
55217;BME280;41086;46.736;15.666;2024-03-02T04:16:25;97716.38;;;10.03;100.00
55217;BME280;41086;46.736;15.666;2024-03-02T04:18:51;97729.72;;;10.12;100.00
55217;BME280;41086;46.736;15.666;2024-03-02T04:21:19;97732.75;;;10.08;100.00
55217;BME280;41086;46.736;15.666;2024-03-02T04:23:45;97736.84;;;10.01;100.00
55217;BME280;41086;46.736;15.666;2024-03-02T04:26:12;97736.34;;;10.07;100.00
55217;BME280;41086;46.736;15.666;2024-03-02T04:28:39;97731.53;;;9.89;100.00
55217;BME280;41086;46.736;15.666;2024-03-02T04:31:06;97743.34;;;9.85;100.00
55217;BME280;41086;46.736;15.666;2024-03-02T04:33:33;97737.31;;;10.06;100.00
55217;BME280;41086;46.736;15.666;2024-03-02T04:36:00;97741.63;;;10.07;100.00
55217;BME280;41086;46.736;15.666;2024-03-02T04:38:26;97736.47;;;9.94;100.00
55217;BME280;41086;46.736;15.666;2024-03-02T04:40:54;97740.22;;;10.03;100.00
55217;BME280;41086;46.736;15.666;2024-03-02T04:43:21;97733.47;;;10.10;100.00
55217;BME280;41086;46.736;15.666;2024-03-02T04:45:47;97714.91;;;9.87;100.00
55217;BME280;41086;46.736;15.666;2024-03-02T04:48:14;97736.97;;;10.10;100.00
55217;BME280;41086;46.736;15.666;2024-03-02T04:50:41;97735.00;;;9.79;100.00
55217;BME280;41086;46.736;15.666;2024-03-02T04:53:08;97716.88;;;9.27;100.00
55217;BME280;41086;46.736;15.666;2024-03-02T04:55:35;97720.00;;;9.32;100.00
55217;BME280;41086;46.736;15.666;2024-03-02T04:58:22;97730.47;;;9.34;100.00
55217;BME280;41086;46.736;15.666;2024-03-02T05:00:49;97726.16;;;9.09;100.00
55217;BME280;41086;46.736;15.666;2024-03-02T05:03:16;97733.38;;;9.31;100.00
55217;BME280;41086;46.736;15.666;2024-03-02T05:05:43;97729.16;;;9.28;100.00
55217;BME280;41086;46.736;15.666;2024-03-02T05:08:09;97739.38;;;9.44;100.00
55217;BME280;41086;46.736;15.666;2024-03-02T05:10:38;97740.25;;;9.45;100.00
55217;BME280;41086;46.736;15.666;2024-03-02T05:13:05;97739.88;;;9.49;100.00
55217;BME280;41086;46.736;15.666;2024-03-02T05:15:32;97743.69;;;9.34;100.00
55217;BME280;41086;46.736;15.666;2024-03-02T05:17:59;97747.38;;;9.20;100.00
55217;BME280;41086;46.736;15.666;2024-03-02T05:20:26;97744.13;;;8.93;100.00
55217;BME280;41086;46.736;15.666;2024-03-02T05:22:53;97745.19;;;9.14;100.00
55217;BME280;41086;46.736;15.666;2024-03-02T05:25:20;97729.09;;;9.17;100.00
55217;BME280;41086;46.736;15.666;2024-03-02T05:27:47;97753.88;;;9.74;100.00
55217;BME280;41086;46.736;15.666;2024-03-02T05:30:14;97751.34;;;9.61;100.00
55217;BME280;41086;46.736;15.666;2024-03-02T05:32:42;97741.59;;;9.50;100.00
55217;BME280;41086;46.736;15.666;2024-03-02T05:35:09;97751.59;;;9.58;100.00
55217;BME280;41086;46.736;15.666;2024-03-02T05:37:37;97759.81;;;9.89;100.00
55217;BME280;41086;46.736;15.666;2024-03-02T05:40:06;97751.88;;;10.11;100.00
55217;BME280;41086;46.736;15.666;2024-03-02T05:42:33;97759.50;;;10.38;100.00
55217;BME280;41086;46.736;15.666;2024-03-02T05:45:00;97752.94;;;10.20;100.00
55217;BME280;41086;46.736;15.666;2024-03-02T05:47:26;97762.97;;;10.16;100.00
55217;BME280;41086;46.736;15.666;2024-03-02T05:49:54;97759.69;;;9.90;100.00
55217;BME280;41086;46.736;15.666;2024-03-02T05:52:21;97766.72;;;9.56;100.00
55217;BME280;41086;46.736;15.666;2024-03-02T05:54:48;97760.44;;;9.46;100.00
55217;BME280;41086;46.736;15.666;2024-03-02T05:57:16;97766.91;;;9.42;100.00
55217;BME280;41086;46.736;15.666;2024-03-02T05:59:44;97763.72;;;9.25;100.00
55217;BME280;41086;46.736;15.666;2024-03-02T06:02:11;97764.88;;;9.45;100.00
55217;BME280;41086;46.736;15.666;2024-03-02T06:04:38;97764.94;;;9.68;100.00
55217;BME280;41086;46.736;15.666;2024-03-02T06:07:04;97772.31;;;10.09;100.00
55217;BME280;41086;46.736;15.666;2024-03-02T06:09:31;97781.56;;;9.81;100.00
55217;BME280;41086;46.736;15.666;2024-03-02T06:11:58;97770.88;;;9.83;100.00
55217;BME280;41086;46.736;15.666;2024-03-02T06:14:25;97757.91;;;9.91;100.00
55217;BME280;41086;46.736;15.666;2024-03-02T06:16:52;97776.53;;;10.01;100.00
55217;BME280;41086;46.736;15.666;2024-03-02T06:19:19;97775.84;;;10.10;100.00
55217;BME280;41086;46.736;15.666;2024-03-02T06:21:46;97778.44;;;9.87;100.00
55217;BME280;41086;46.736;15.666;2024-03-02T06:24:12;97776.78;;;9.40;100.00
55217;BME280;41086;46.736;15.666;2024-03-02T06:26:39;97784.41;;;9.20;100.00
55217;BME280;41086;46.736;15.666;2024-03-02T06:29:06;97785.28;;;9.08;100.00
55217;BME280;41086;46.736;15.666;2024-03-02T06:31:34;97736.09;;;8.70;100.00
55217;BME280;41086;46.736;15.666;2024-03-02T06:34:01;97782.81;;;8.94;100.00
55217;BME280;41086;46.736;15.666;2024-03-02T06:36:30;97795.69;;;8.98;100.00
55217;BME280;41086;46.736;15.666;2024-03-02T06:38:57;97796.50;;;9.47;100.00
55217;BME280;41086;46.736;15.666;2024-03-02T06:41:24;97796.41;;;9.48;100.00
55217;BME280;41086;46.736;15.666;2024-03-02T06:43:52;97796.94;;;9.65;100.00
55217;BME280;41086;46.736;15.666;2024-03-02T06:46:26;97809.13;;;10.01;100.00
55217;BME280;41086;46.736;15.666;2024-03-02T06:48:53;97808.69;;;10.18;100.00
55217;BME280;41086;46.736;15.666;2024-03-02T06:51:20;97799.28;;;10.26;100.00
55217;BME280;41086;46.736;15.666;2024-03-02T06:53:47;97792.91;;;10.17;100.00
55217;BME280;41086;46.736;15.666;2024-03-02T06:56:14;97814.59;;;10.22;100.00
55217;BME280;41086;46.736;15.666;2024-03-02T06:58:41;97812.75;;;10.00;100.00
55217;BME280;41086;46.736;15.666;2024-03-02T07:01:09;97811.69;;;10.03;100.00
55217;BME280;41086;46.736;15.666;2024-03-02T07:03:36;97814.63;;;10.33;100.00
55217;BME280;41086;46.736;15.666;2024-03-02T07:06:03;97816.56;;;10.42;100.00
55217;BME280;41086;46.736;15.666;2024-03-02T07:08:30;97814.03;;;10.52;100.00
55217;BME280;41086;46.736;15.666;2024-03-02T07:10:57;97819.06;;;10.55;100.00
55217;BME280;41086;46.736;15.666;2024-03-02T07:13:26;97797.63;;;10.58;100.00
55217;BME280;41086;46.736;15.666;2024-03-02T07:15:53;97814.63;;;10.78;100.00
55217;BME280;41086;46.736;15.666;2024-03-02T07:18:30;97809.41;;;10.88;100.00
55217;BME280;41086;46.736;15.666;2024-03-02T07:21:00;97811.84;;;10.91;100.00
55217;BME280;41086;46.736;15.666;2024-03-02T07:23:28;97812.91;;;10.89;100.00
55217;BME280;41086;46.736;15.666;2024-03-02T07:25:55;97811.47;;;10.84;100.00
55217;BME280;41086;46.736;15.666;2024-03-02T07:28:26;97820.22;;;10.96;100.00
55217;BME280;41086;46.736;15.666;2024-03-02T07:33:26;97817.13;;;10.69;100.00
55217;BME280;41086;46.736;15.666;2024-03-02T07:35:54;97819.56;;;10.60;100.00
55217;BME280;41086;46.736;15.666;2024-03-02T07:38:23;97811.50;;;10.39;100.00
55217;BME280;41086;46.736;15.666;2024-03-02T07:40:50;97821.84;;;10.76;100.00
55217;BME280;41086;46.736;15.666;2024-03-02T07:43:17;97818.47;;;10.63;100.00
55217;BME280;41086;46.736;15.666;2024-03-02T07:45:46;97824.34;;;10.89;100.00
55217;BME280;41086;46.736;15.666;2024-03-02T07:48:14;97818.88;;;11.02;100.00
55217;BME280;41086;46.736;15.666;2024-03-02T07:50:41;97815.19;;;10.82;100.00
55217;BME280;41086;46.736;15.666;2024-03-02T07:53:09;97828.00;;;10.54;100.00
55217;BME280;41086;46.736;15.666;2024-03-02T07:55:36;97797.38;;;10.16;100.00
55217;BME280;41086;46.736;15.666;2024-03-02T07:58:03;97822.38;;;10.12;100.00
55217;BME280;41086;46.736;15.666;2024-03-02T08:00:30;97815.19;;;10.26;100.00
55217;BME280;41086;46.736;15.666;2024-03-02T08:02:57;97814.63;;;10.67;100.00
55217;BME280;41086;46.736;15.666;2024-03-02T08:05:25;97828.00;;;10.32;100.00
55217;BME280;41086;46.736;15.666;2024-03-02T08:07:52;97823.38;;;10.11;100.00
55217;BME280;41086;46.736;15.666;2024-03-02T08:10:19;97823.13;;;10.26;100.00
55217;BME280;41086;46.736;15.666;2024-03-02T08:12:47;97808.94;;;9.69;100.00
55217;BME280;41086;46.736;15.666;2024-03-02T08:15:14;97824.06;;;9.91;100.00
55217;BME280;41086;46.736;15.666;2024-03-02T08:17:41;97823.50;;;10.21;100.00
55217;BME280;41086;46.736;15.666;2024-03-02T08:20:16;97823.25;;;10.24;100.00
55217;BME280;41086;46.736;15.666;2024-03-02T08:22:43;97834.38;;;10.63;100.00
55217;BME280;41086;46.736;15.666;2024-03-02T08:25:11;97822.22;;;10.49;100.00
55217;BME280;41086;46.736;15.666;2024-03-02T08:27:39;97829.19;;;10.28;100.00
55217;BME280;41086;46.736;15.666;2024-03-02T08:30:07;97825.25;;;9.87;100.00
55217;BME280;41086;46.736;15.666;2024-03-02T08:32:35;97827.41;;;9.82;100.00
55217;BME280;41086;46.736;15.666;2024-03-02T08:35:01;97826.22;;;9.86;100.00
55217;BME280;41086;46.736;15.666;2024-03-02T08:37:28;97806.50;;;9.54;100.00
55217;BME280;41086;46.736;15.666;2024-03-02T08:39:55;97814.56;;;9.53;100.00
55217;BME280;41086;46.736;15.666;2024-03-02T08:42:22;97827.53;;;9.80;100.00
55217;BME280;41086;46.736;15.666;2024-03-02T08:44:49;97822.75;;;10.08;100.00
55217;BME280;41086;46.736;15.666;2024-03-02T08:47:16;97824.03;;;10.37;100.00
55217;BME280;41086;46.736;15.666;2024-03-02T08:49:43;97823.31;;;10.35;100.00
55217;BME280;41086;46.736;15.666;2024-03-02T08:52:10;97826.97;;;11.00;100.00
55217;BME280;41086;46.736;15.666;2024-03-02T08:54:37;97838.88;;;11.17;100.00
55217;BME280;41086;46.736;15.666;2024-03-02T08:57:05;97832.63;;;11.71;100.00
55217;BME280;41086;46.736;15.666;2024-03-02T08:59:32;97831.19;;;12.00;100.00
55217;BME280;41086;46.736;15.666;2024-03-02T09:01:59;97828.13;;;12.25;97.26
55217;BME280;41086;46.736;15.666;2024-03-02T09:04:26;97830.75;;;11.62;99.16
55217;BME280;41086;46.736;15.666;2024-03-02T09:06:57;97823.38;;;11.66;99.71
55217;BME280;41086;46.736;15.666;2024-03-02T09:09:24;97829.31;;;11.26;100.00
55217;BME280;41086;46.736;15.666;2024-03-02T09:11:51;97810.63;;;11.60;100.00
55217;BME280;41086;46.736;15.666;2024-03-02T09:14:18;97801.22;;;11.56;98.91
55217;BME280;41086;46.736;15.666;2024-03-02T09:16:46;97824.84;;;11.91;94.94
55217;BME280;41086;46.736;15.666;2024-03-02T09:19:12;97823.56;;;11.09;99.63
55217;BME280;41086;46.736;15.666;2024-03-02T09:21:39;97826.03;;;11.66;99.67
55217;BME280;41086;46.736;15.666;2024-03-02T09:24:08;97827.69;;;12.20;97.52
55217;BME280;41086;46.736;15.666;2024-03-02T09:26:35;97822.28;;;12.62;96.21
55217;BME280;41086;46.736;15.666;2024-03-02T09:29:11;97826.69;;;12.82;91.27
55217;BME280;41086;46.736;15.666;2024-03-02T09:31:42;97822.44;;;13.20;91.91
55217;BME280;41086;46.736;15.666;2024-03-02T09:34:09;97825.47;;;13.66;92.57
55217;BME280;41086;46.736;15.666;2024-03-02T09:36:36;97826.16;;;14.44;87.65
55217;BME280;41086;46.736;15.666;2024-03-02T09:39:03;97808.72;;;14.87;85.10
55217;BME280;41086;46.736;15.666;2024-03-02T09:41:32;97821.06;;;15.16;78.44
55217;BME280;41086;46.736;15.666;2024-03-02T09:44:00;97801.63;;;15.23;76.65
55217;BME280;41086;46.736;15.666;2024-03-02T09:46:27;97818.81;;;15.57;77.85
55217;BME280;41086;46.736;15.666;2024-03-02T09:48:54;97819.69;;;16.01;75.13
55217;BME280;41086;46.736;15.666;2024-03-02T09:51:21;97819.41;;;16.30;72.42
55217;BME280;41086;46.736;15.666;2024-03-02T09:53:48;97820.06;;;16.50;70.66
55217;BME280;41086;46.736;15.666;2024-03-02T09:56:16;97826.31;;;16.67;71.12
55217;BME280;41086;46.736;15.666;2024-03-02T09:58:42;97800.00;;;16.80;68.95
55217;BME280;41086;46.736;15.666;2024-03-02T10:01:10;97810.81;;;17.13;68.15
55217;BME280;41086;46.736;15.666;2024-03-02T10:03:38;97810.38;;;17.50;67.73
55217;BME280;41086;46.736;15.666;2024-03-02T10:08:47;97811.06;;;18.18;60.75
55217;BME280;41086;46.736;15.666;2024-03-02T10:11:31;97805.69;;;17.44;61.64
55217;BME280;41086;46.736;15.666;2024-03-02T10:16:39;97809.66;;;16.47;69.56
55217;BME280;41086;46.736;15.666;2024-03-02T10:19:16;97806.94;;;16.39;69.65
55217;BME280;41086;46.736;15.666;2024-03-02T10:21:46;97792.69;;;16.30;68.94
55217;BME280;41086;46.736;15.666;2024-03-02T10:24:13;97807.16;;;16.20;70.86
55217;BME280;41086;46.736;15.666;2024-03-02T10:26:40;97805.94;;;16.14;72.10
55217;BME280;41086;46.736;15.666;2024-03-02T10:29:09;97797.50;;;16.01;71.04
55217;BME280;41086;46.736;15.666;2024-03-02T10:31:38;97808.75;;;15.86;75.34
55217;BME280;41086;46.736;15.666;2024-03-02T10:34:08;97809.44;;;16.67;74.65
55217;BME280;41086;46.736;15.666;2024-03-02T10:36:37;97812.97;;;17.18;69.20
55217;BME280;41086;46.736;15.666;2024-03-02T10:39:08;97804.97;;;17.34;66.84
55217;BME280;41086;46.736;15.666;2024-03-02T10:41:36;97806.28;;;17.14;66.63
55217;BME280;41086;46.736;15.666;2024-03-02T10:44:05;97791.25;;;17.13;66.26
55217;BME280;41086;46.736;15.666;2024-03-02T10:46:33;97793.78;;;17.31;66.34
55217;BME280;41086;46.736;15.666;2024-03-02T10:49:01;97798.81;;;17.50;64.15
55217;BME280;41086;46.736;15.666;2024-03-02T10:51:33;97791.50;;;18.09;64.05
55217;BME280;41086;46.736;15.666;2024-03-02T10:54:03;97787.94;;;18.25;61.00
55217;BME280;41086;46.736;15.666;2024-03-02T10:56:32;97783.69;;;18.55;59.77
55217;BME280;41086;46.736;15.666;2024-03-02T10:59:06;97775.72;;;18.23;61.27
55217;BME280;41086;46.736;15.666;2024-03-02T11:01:39;97778.81;;;18.51;61.73
55217;BME280;41086;46.736;15.666;2024-03-02T11:04:08;97789.44;;;18.36;60.81
55217;BME280;41086;46.736;15.666;2024-03-02T11:06:36;97784.13;;;18.11;60.13
55217;BME280;41086;46.736;15.666;2024-03-02T11:09:07;97779.72;;;18.35;60.90
55217;BME280;41086;46.736;15.666;2024-03-02T11:11:40;97767.88;;;18.69;60.44
55217;BME280;41086;46.736;15.666;2024-03-02T11:14:14;97768.88;;;18.04;61.55
55217;BME280;41086;46.736;15.666;2024-03-02T11:16:43;97763.00;;;18.08;63.08
55217;BME280;41086;46.736;15.666;2024-03-02T11:19:15;97758.66;;;17.99;61.22
55217;BME280;41086;46.736;15.666;2024-03-02T11:21:44;97765.63;;;18.41;62.00
55217;BME280;41086;46.736;15.666;2024-03-02T11:26:51;97758.16;;;17.96;60.22
55217;BME280;41086;46.736;15.666;2024-03-02T11:32:05;97746.72;;;19.36;60.91
55217;BME280;41086;46.736;15.666;2024-03-02T11:34:36;97751.72;;;19.39;57.53
55217;BME280;41086;46.736;15.666;2024-03-02T11:37:05;97749.81;;;18.94;59.98
55217;BME280;41086;46.736;15.666;2024-03-02T11:39:32;97738.09;;;18.47;58.69
55217;BME280;41086;46.736;15.666;2024-03-02T11:42:00;97741.69;;;18.79;59.80
55217;BME280;41086;46.736;15.666;2024-03-02T11:44:27;97732.94;;;18.37;61.45
55217;BME280;41086;46.736;15.666;2024-03-02T11:47:00;97739.28;;;18.45;62.98
55217;BME280;41086;46.736;15.666;2024-03-02T11:49:50;97742.22;;;18.19;60.77
55217;BME280;41086;46.736;15.666;2024-03-02T11:52:22;97732.09;;;18.29;62.74
55217;BME280;41086;46.736;15.666;2024-03-02T11:54:49;97727.72;;;18.44;58.09
55217;BME280;41086;46.736;15.666;2024-03-02T11:57:19;97717.69;;;18.69;59.25
55217;BME280;41086;46.736;15.666;2024-03-02T11:59:49;97720.66;;;18.91;57.32
55217;BME280;41086;46.736;15.666;2024-03-02T12:02:20;97720.59;;;18.68;58.24
55217;BME280;41086;46.736;15.666;2024-03-02T12:04:48;97725.69;;;19.17;58.02
55217;BME280;41086;46.736;15.666;2024-03-02T12:07:23;97728.16;;;19.49;55.09
55217;BME280;41086;46.736;15.666;2024-03-02T12:10:00;97723.06;;;19.78;54.85
55217;BME280;41086;46.736;15.666;2024-03-02T12:12:30;97720.28;;;19.25;56.44
55217;BME280;41086;46.736;15.666;2024-03-02T12:14:57;97717.88;;;19.07;56.36
55217;BME280;41086;46.736;15.666;2024-03-02T12:17:25;97712.59;;;19.22;55.51
55217;BME280;41086;46.736;15.666;2024-03-02T12:19:52;97713.59;;;18.50;59.46
55217;BME280;41086;46.736;15.666;2024-03-02T12:22:21;97721.91;;;18.24;58.83
55217;BME280;41086;46.736;15.666;2024-03-02T12:24:48;97710.19;;;18.17;60.05
55217;BME280;41086;46.736;15.666;2024-03-02T12:27:15;97712.09;;;18.48;59.30
55217;BME280;41086;46.736;15.666;2024-03-02T12:29:42;97697.19;;;17.98;61.81
55217;BME280;41086;46.736;15.666;2024-03-02T12:32:09;97694.88;;;17.29;66.12
55217;BME280;41086;46.736;15.666;2024-03-02T12:34:38;97703.56;;;17.23;66.88
55217;BME280;41086;46.736;15.666;2024-03-02T12:37:05;97701.69;;;16.99;67.36
55217;BME280;41086;46.736;15.666;2024-03-02T12:39:32;97691.72;;;16.67;68.14
55217;BME280;41086;46.736;15.666;2024-03-02T12:42:00;97681.44;;;16.96;68.81
55217;BME280;41086;46.736;15.666;2024-03-02T12:44:29;97697.47;;;16.88;68.80
55217;BME280;41086;46.736;15.666;2024-03-02T12:46:56;97705.75;;;16.69;69.39
55217;BME280;41086;46.736;15.666;2024-03-02T12:49:26;97671.97;;;16.17;71.13
55217;BME280;41086;46.736;15.666;2024-03-02T12:51:55;97695.84;;;16.61;71.84
55217;BME280;41086;46.736;15.666;2024-03-02T12:54:25;97686.16;;;16.52;72.56
55217;BME280;41086;46.736;15.666;2024-03-02T12:56:53;97692.16;;;16.11;74.90
55217;BME280;41086;46.736;15.666;2024-03-02T12:59:23;97686.59;;;15.97;75.15
55217;BME280;41086;46.736;15.666;2024-03-02T13:01:55;97694.75;;;15.95;76.31
55217;BME280;41086;46.736;15.666;2024-03-02T13:04:28;97693.00;;;16.12;75.32
55217;BME280;41086;46.736;15.666;2024-03-02T13:06:56;97693.03;;;16.20;75.37
55217;BME280;41086;46.736;15.666;2024-03-02T13:09:24;97693.78;;;16.38;74.75
55217;BME280;41086;46.736;15.666;2024-03-02T13:11:52;97678.97;;;16.52;74.24